Latest METARs, TAFs and NOTAMs for MYNN


---------------------------------------------------------------------------
	(OBSERVATIONS)
MYNN 261300Z 05012KT 9999 FEW018TCU 26/14 A3010 RMK TCU/W=
MYNN 261200Z 06008KT 9999 FEW018TCU 24/19 A3008 RMK TCU/SW RADAT
    20124=
MYNN 261100Z 05007KT 9999 SCT018TCU 22/18 A3007 RMK TCU E THRU
    W=
---------------------------------------------------------------------------
	(TERMINAL AREA FORECAST)
MYNN 260945Z 2612/2712 05014KT 9999 SCT020 BKN040=
---------------------------------------------------------------------------
	(NOTAMS)


MYNN A0036/17 CHECKLIST (A) SERIES YEAR=2010 0277 YEAR=2013 0068
    0069 0070 YEAR=2015 0108 YEAR=2016 0209 0221 0266 0291 0316
    0350 0352 0381 0382 0383 0384 0385 0386 0387 0388 0389 0390
    0391 0392 0393 0394 YEAR=2017 0011 0019 0021 0022 0023 0028
    0029 0030 0031 0032 0033 0035 LATEST PUBLICATIONS AIP AMDT
    01/16 EFFECTIVE MAY 26, 2016 AIC 03/16. 28 FEB 21:00 2017
    UNTIL 31 MAR 23:59 2017. CREATED: 28 FEB 19:37 2017

MYNN A0045/17 RWY 09/27 CLSD. DLY SS TO SR, 08 MAR 23:00 2017
    UNTIL 10 APR 11:00 2017. CREATED: 07 MAR 14:27 2017

MYNN A0068/13 VOR Y RWY 14 FEEDER RTE FM MAJUR TO MUNIE NOT AVBL
    VOR Y RWY 14 FEEDER RTE FM MELON TO MUNIE NOT AVBL. SFC -
    UNL, 19 APR 19:55 2013 UNTIL PERM. CREATED: 19 APR 19:51
    2013

MYNN A0069/13 VOR Y RWY 09 FEEDER RTE FM MAJUR TO MUSSE NOT AVBL
    REMOVE PROCEDURE NOTE 'RADAR REQUIRED' FM APP CHART. SFC
    - UNL, 19 APR 19:55 2013 UNTIL PERM. CREATED: 19 APR 19:52
    2013

MYNN A0070/13 VOR Y RWY 32 FEEDER RTE FM PRUNE TO WELKS NOT AVBL
    REMOVE PROCEDURE NOTE 'RADAR REQUIRED' FM APP CHART. SFC
    - UNL, 19 APR 19:55 2013 UNTIL PERM. CREATED: 19 APR 19:54
    2013

MYNN A0108/15 INFORMATION LISTED IN AIC 3/2015 WITH THE EXCEPTION
    OF MYNN AND MYGF RNAV APCH PROC IN THE BAHAMAS ARE NOT AUTH
    DUE TO AIRSPACE CLASSIFICATION RESTRICTIONS. 01 JUN 18:00
    2015 UNTIL PERM. CREATED: 01 JUN 16:52 2015

MYNN A0316/16 WIE THE DEPARTMENT OF CIVIL AVIATION BANS ALL SAMSUNG
    GALAXY NOTE 7 PHONES FROM ACFT TRAVELLING IN THE BAHAMAS.
    DEVICES MAY NOT BE TRANSPORTED BY PASSENGERS OR CREW ON THEIR
    PERSON, IN CARRY-ON BAGGAGE, OR IN CHECKED BAGGAGE ON FLIGHTS
    TO, FROM, OR WITHIN THE COMMONWEALTH OF THE BAHAMAS AND CANNOT
    BE SHIPPED AS AIR CARGO. 20 OCT 15:30 2016 UNTIL PERM. CREATED:
    20 OCT 15:12 2016

MYNN A0393/16 ATS WILL ONLY ACCEPT NON-CLOSURE PLN'S TO MYSM
    MYCA MYCX MYCH MYCB MYAP MYCI MYCP MYMM MYRP MYLD MYLS DUE
    TO LACK OF COM. 30 DEC 16:00 2016 UNTIL 31 MAR 23:59 2017.
    CREATED: 29 DEC 16:02 2016

MYNN B0002/17 CHECKLIST (B) SERIES YEAR=2016 0024 0028 LATEST
    PUBLICATIONS AIP AMDT 01/16 EFFECTIVE MAY 26, 2016 AIC 03/16.
    28 FEB 21:00 2017 UNTIL 31 MAR 23:59 2017. CREATED: 28 FEB
    19:41 2017

MYNN V0151/17 [US DOD PROCEDURAL NOTAM] INSTRUMENT APPROACH PROCEDURE
    AMENDMENT VOR Y RWY 32 AMEND S-VOR 32 MINIMUMS AS FOLLOWS:
    S-VOR 06 CAT AB 460 - 2400M 445 (500 - 2400M) CAT C 460 -
    2800M 445 (500 - 2800M) CAT D 460 - 3200M 445 (500 - 3200M)
    CIRCLING CAT A 580 - 2400M 564 (600 - 2400M) CAT B 580 -
    2800M 564 (600 - 2800M) CAT C 770 - 3700M 754 (800 - 3700M)
    CAT D 860 - 4600M 844 (900 - 4600M. 01 MAR 18:50 2017 UNTIL
    27 APR 12:00 2017. CREATED: 01 MAR 18:50 2017

MYNN V0152/17 [US DOD PROCEDURAL NOTAM] INSTRUMENT APPROACH PROCEDURE
    AMENDMENT VOR Y RWY 14 AMEND S-VOR 14 MINIMUMS AS FOLLOWS:
    CIRCLING CAT C 770 - 3700M 724 (800 - 3700M. 01 MAR 18:51
    2017 UNTIL 27 APR 12:00 2017. CREATED: 01 MAR 18:51 2017

---------------------------------------------------------------------------